• Join FlightAware (Why Join?)
  • Login
  • US Flag 
04:52PM EDT


 

Airport Tracker/Info


-or-


 

Live Flight TrackerFlight Track Log ✈ CSJ405 ✈ 01-May-2013 ✈ KCDW - KROC

Flight Track Log - Related Links

Times and Time Zones

All times are in EDT time to prevent confusion due to time zone crossing. See the CSJ405 flight status page for this flight to view local times or setup timezone preferences in your user account.

Time Position Orientation Groundspeed Altitude Reporting Facility
EDT Latitude Longitude Course Direction KTS MPH feet Rate Location/Type
08:02PM 40.8500 -74.2833 180° South 78 90 2,100  Level New York TRACON
08:03PM 40.8167 -74.2833 180° South 85 98 3,300 1,200 Climbing New York TRACON
08:04PM 40.8000 -74.2833 180° South 91 105 4,500 1,200 Climbing New York TRACON
08:05PM 40.7833 -74.3167 237° Southwest 98 113 5,700 1,200 Climbing New York TRACON
08:06PM 40.7833 -74.3500 270° West 97 112 6,900 1,140 Climbing New York TRACON
08:07PM 40.8000 -74.3667 323° Northwest 94 108 8,000 1,020 Climbing New York TRACON
08:08PM 40.8167 -74.3833 323° Northwest 89 102 9,000 480 Climbing New York TRACON
08:09PM 40.8500 -74.4000 339° North 149 171 9,000  Level New York TRACON
08:10PM 40.9000 -74.4000 360° North 171 197 9,000  Level New York TRACON
08:11PM 40.9500 -74.4167 346° North 170 196 9,000  Level New York TRACON
08:12PM 41.0000 -74.4333 346° North 171 197 9,000  Level New York TRACON
08:13PM 41.0333 -74.4500 339° North 173 199 9,000  Level New York TRACON
08:14PM 41.0833 -74.4667 346° North 175 201 9,000  Level New York TRACON
08:15PM 41.1333 -74.4833 346° North 171 197 9,000 -60 Level New York TRACON
08:17PM 41.1853 -74.5627 North  Level Estimated
08:24PM 41.4369 -74.6531 305° West  Level FlightAware Approximate
08:25PM 41.4617 -74.7003 305° West  Level FlightAware Approximate
08:26PM 41.4647 -74.7597 274° West  Level FlightAware Approximate
08:27PM 41.4924 -74.8063 323° Northwest  Level Estimated
08:28PM 41.5249 -74.8472 317° Northwest  Level FlightAware Approximate
08:29PM 41.5525 -74.8940 308° West  Level Estimated
08:30PM 41.5812 -74.9397 310° West  Level FlightAware Approximate
08:31PM 41.6098 -74.9854 310° West  Level FlightAware Approximate
08:32PM 41.6385 -75.0312 310° West  Level FlightAware Approximate
08:33PM 41.6671 -75.0770 310° West  Level FlightAware Approximate
08:34PM 41.6956 -75.1228 310° West  Level FlightAware Approximate
08:35PM 41.7231 -75.1699 308° West  Level Estimated
08:36PM 41.7506 -75.2169 308° West  Level FlightAware Approximate
08:37PM 41.7782 -75.2640 308° West  Level FlightAware Approximate
08:38PM 41.8057 -75.3111 308° West  Level FlightAware Approximate
08:39PM 41.8332 -75.3582 308° West  Level FlightAware Approximate
08:40PM 41.8607 -75.4054 308° West  Level FlightAware Approximate
08:41PM 41.8882 -75.4526 308° West  Level FlightAware Approximate
08:42PM 41.9156 -75.4998 308° West  Level FlightAware Approximate
08:43PM 41.9430 -75.5471 308° West  Level FlightAware Approximate
08:44PM 41.9705 -75.5945 308° West  Level FlightAware Approximate
08:45PM 41.9978 -75.6418 308° West  Level FlightAware Approximate
08:46PM 42.0252 -75.6892 308° West  Level FlightAware Approximate
08:47PM 42.0526 -75.7367 308° West  Level FlightAware Approximate
08:48PM 42.0799 -75.7842 308° West  Level FlightAware Approximate
08:49PM 42.1072 -75.8317 308° West  Level FlightAware Approximate
08:50PM 42.1345 -75.8793 308° West  Level FlightAware Approximate
08:51PM 42.1618 -75.9269 308° West  Level FlightAware Approximate
08:52PM 42.1890 -75.9746 308° West  Level FlightAware Approximate
08:53PM 42.2162 -76.0223 308° West  Level FlightAware Approximate
08:54PM 42.2435 -76.0700 308° West  Level FlightAware Approximate
08:55PM 42.2706 -76.1178 308° West  Level FlightAware Approximate
08:56PM 42.2978 -76.1656 308° West  Level FlightAware Approximate
08:57PM 42.3250 -76.2135 308° West  Level FlightAware Approximate
08:58PM 42.3521 -76.2614 307° West  Level FlightAware Approximate
08:59PM 42.3789 -76.3096 306° West  Level Estimated
09:00PM 42.4053 -76.3584 306° West  Level FlightAware Approximate
09:00PM 42.5536 -76.6453 306° West 174 200 7,900  Level Cleveland Center
09:01PM 42.4316 -76.4071 306° West  Level FlightAware Approximate
09:01PM 42.5781 -76.6917 306° West 176 203 8,000  Level Cleveland Center
09:02PM 42.4579 -76.4559 306° West  Level FlightAware Approximate
09:02PM 42.6089 -76.7433 309° West 175 201 7,900  Level Cleveland Center
09:03PM 42.4842 -76.5048 306° West  Level FlightAware Approximate
09:03PM 42.6358 -76.7981 304° West 175 201 8,000  Level Cleveland Center
09:04PM 42.5105 -76.5537 306° West  Level FlightAware Approximate
09:04PM 42.6667 -76.8528 307° West 174 200 7,900  Level Cleveland Center
09:05PM 42.5368 -76.6026 306° West  Level FlightAware Approximate
09:05PM 42.6975 -76.9047 309° West 174 200 8,000  Level Cleveland Center
09:06PM 42.7264 -76.9567 307° West 175 201 8,000 -120 Level Cleveland Center
09:07PM 42.7553 -77.0117 306° West 175 201 7,800 -600 Descending Cleveland Center
09:08PM 42.7881 -77.0664 309° West 195 224 6,800 -900 Descending Cleveland Center
09:09PM 42.8211 -77.1267 307° West 196 226 6,000 -780 Descending Cleveland Center
09:10PM 42.8542 -77.1844 308° West 188 216 5,300 -660 Descending Cleveland Center
09:11PM 42.8872 -77.2450 307° West 189 217 4,700 -600 Descending Cleveland Center
09:12PM 42.9181 -77.3028 306° West 190 219 4,100 -360 Descending Cleveland Center
09:13PM 42.9467 -77.3608 304° West 182 209 4,000 -240 Descending Cleveland Center
09:14PM 42.9775 -77.4133 309° West 182 209 3,700 -420 Descending Cleveland Center
09:15PM 43.0125 -77.4739 308° West 190 219 3,200 -540 Descending Cleveland Center
09:16PM 43.0475 -77.5375 307° West 192 221 2,600 -660 Descending Cleveland Center
09:17PM 43.0761 -77.5989 303° West 195 224 1,900 -720 Descending Cleveland Center